createdAt,value
2022-12-06T00:02:00.489Z,18.68
2022-12-06T00:04:28.432Z,18.69
2022-12-06T00:06:57.486Z,18.68
2022-12-06T00:09:26.128Z,18.69
2022-12-06T00:11:54.062Z,18.70
2022-12-06T00:14:23.458Z,18.69
2022-12-06T00:16:51.925Z,18.71
2022-12-06T00:19:21.193Z,18.77
2022-12-06T00:21:49.855Z,18.81
2022-12-06T00:24:18.418Z,18.83
2022-12-06T00:26:47.079Z,18.84
2022-12-06T00:29:16.510Z,18.84
2022-12-06T00:31:45.922Z,18.84
2022-12-06T00:34:13.947Z,18.85
2022-12-06T00:36:42.037Z,18.89
2022-12-06T00:39:10.696Z,18.90
2022-12-06T00:41:38.616Z,18.89
2022-12-06T00:44:06.593Z,18.85
2022-12-06T00:46:34.738Z,18.82
2022-12-06T00:49:04.799Z,18.79
2022-12-06T00:51:33.392Z,18.76
2022-12-06T00:54:02.359Z,18.75
2022-12-06T00:56:30.212Z,18.72
2022-12-06T00:58:58.138Z,18.70
2022-12-06T01:01:26.732Z,18.68
2022-12-06T01:03:55.377Z,18.66
2022-12-06T01:06:26.082Z,18.65
2022-12-06T01:08:54.885Z,18.64
2022-12-06T01:11:23.264Z,18.61
2022-12-06T01:13:51.690Z,18.60
2022-12-06T01:16:22.573Z,18.59
2022-12-06T01:18:53.013Z,18.58
2022-12-06T01:21:20.946Z,18.58
2022-12-06T01:23:50.332Z,18.57
2022-12-06T01:26:19.027Z,18.55
2022-12-06T01:28:47.019Z,18.55
2022-12-06T01:31:15.002Z,18.55
2022-12-06T01:33:43.063Z,18.54
2022-12-06T01:36:16.869Z,18.54
2022-12-06T01:38:44.846Z,18.54
2022-12-06T01:41:14.151Z,18.54
2022-12-06T01:43:42.946Z,18.54
2022-12-06T01:46:25.121Z,18.53
2022-12-06T01:48:54.896Z,18.54
2022-12-06T01:51:22.769Z,18.54
2022-12-06T01:53:50.669Z,18.57
2022-12-06T01:56:19.992Z,18.58
2022-12-06T01:58:47.874Z,18.58
2022-12-06T02:01:15.880Z,18.57
2022-12-06T02:03:43.819Z,18.58
2022-12-06T02:06:11.687Z,18.58
2022-12-06T02:08:39.597Z,18.58
2022-12-06T02:11:07.713Z,18.58
2022-12-06T02:13:36.987Z,18.58
2022-12-06T02:16:12.795Z,18.58
2022-12-06T02:18:42.589Z,18.58
2022-12-06T02:21:15.614Z,18.60
2022-12-06T02:24:08.872Z,18.60
2022-12-06T02:26:40.994Z,18.59
2022-12-06T02:29:42.800Z,18.58
2022-12-06T02:32:12.939Z,18.61
2022-12-06T02:34:44.056Z,18.60
2022-12-06T02:37:12.712Z,18.60
2022-12-06T02:39:43.916Z,18.59
2022-12-06T02:42:13.936Z,18.59
2022-12-06T02:44:43.343Z,18.58
2022-12-06T02:47:12.746Z,18.58
2022-12-06T02:49:44.804Z,18.57
2022-12-06T02:52:12.834Z,18.57
2022-12-06T02:54:40.731Z,18.57
2022-12-06T02:57:08.600Z,18.57
2022-12-06T02:59:36.506Z,18.56
2022-12-06T03:02:05.493Z,18.57
2022-12-06T03:04:48.929Z,18.57
2022-12-06T03:07:25.975Z,18.57
2022-12-06T03:09:57.395Z,18.57
2022-12-06T03:12:30.566Z,18.57
2022-12-06T03:15:02.186Z,18.55
2022-12-06T03:17:33.713Z,18.54
2022-12-06T03:20:06.425Z,18.54
2022-12-06T03:22:39.775Z,18.55
2022-12-06T03:25:08.739Z,18.53
2022-12-06T03:27:36.793Z,18.53
2022-12-06T03:30:08.404Z,18.52
2022-12-06T03:32:36.319Z,18.52
2022-12-06T03:35:07.207Z,18.52
2022-12-06T03:37:35.093Z,18.51
2022-12-06T03:40:04.939Z,18.50
2022-12-06T03:42:32.853Z,18.51
2022-12-06T03:45:00.776Z,18.51
2022-12-06T03:47:32.200Z,18.50
2022-12-06T03:50:01.334Z,18.50
2022-12-06T03:52:30.871Z,18.48
2022-12-06T03:54:58.799Z,18.49
2022-12-06T03:57:26.715Z,18.49
2022-12-06T03:59:54.645Z,18.47
2022-12-06T04:02:22.611Z,18.48
2022-12-06T04:04:50.537Z,18.47
2022-12-06T04:07:21.261Z,18.47
2022-12-06T04:09:56.201Z,18.47
2022-12-06T04:12:41.898Z,18.48
2022-12-06T04:15:11.092Z,18.48
2022-12-06T04:17:57.385Z,18.47
2022-12-06T04:20:25.447Z,18.47
2022-12-06T04:23:04.162Z,18.46
2022-12-06T04:25:33.709Z,18.47
2022-12-06T04:28:19.335Z,18.48
2022-12-06T04:31:04.695Z,18.50
2022-12-06T04:33:50.155Z,18.51
2022-12-06T04:36:35.580Z,18.51
2022-12-06T04:39:03.478Z,18.52
2022-12-06T04:41:50.291Z,18.51
2022-12-06T04:44:18.214Z,18.51
2022-12-06T04:46:46.227Z,18.51
2022-12-06T04:49:14.177Z,18.52
2022-12-06T04:51:42.171Z,18.52
2022-12-06T04:54:10.064Z,18.51
2022-12-06T04:56:39.357Z,18.51
2022-12-06T04:59:08.428Z,18.50
2022-12-06T05:01:36.335Z,18.50
2022-12-06T05:04:04.266Z,18.49
2022-12-06T05:06:32.246Z,18.48
2022-12-06T05:09:00.168Z,18.49
2022-12-06T05:11:28.061Z,18.48
2022-12-06T05:13:57.446Z,18.48
2022-12-06T05:16:25.429Z,18.45
2022-12-06T05:18:53.354Z,18.44
2022-12-06T05:21:22.785Z,18.46
2022-12-06T05:23:51.028Z,18.46
2022-12-06T05:26:19.874Z,18.47
2022-12-06T05:28:48.575Z,18.47
2022-12-06T05:31:17.975Z,18.48
2022-12-06T05:33:45.996Z,18.48
2022-12-06T05:36:15.128Z,18.49
2022-12-06T05:38:45.826Z,18.51
2022-12-06T05:41:17.814Z,18.52
2022-12-06T05:43:45.753Z,18.52
2022-12-06T05:46:14.257Z,18.53
2022-12-06T05:48:43.573Z,18.53
2022-12-06T05:51:11.489Z,18.54
2022-12-06T05:53:39.446Z,18.56
2022-12-06T05:56:09.169Z,18.56
2022-12-06T05:58:37.341Z,18.57
2022-12-06T06:01:06.007Z,18.57
2022-12-06T06:03:33.995Z,18.57
2022-12-06T06:06:03.378Z,18.56
2022-12-06T06:08:31.319Z,18.56
2022-12-06T06:10:59.283Z,18.57
2022-12-06T06:13:27.182Z,18.56
2022-12-06T06:15:55.093Z,18.58
2022-12-06T06:18:22.970Z,18.56
2022-12-06T06:20:51.832Z,18.54
2022-12-06T06:23:21.241Z,18.52
2022-12-06T06:25:49.191Z,18.50
2022-12-06T06:28:17.685Z,18.48
2022-12-06T06:30:45.789Z,18.45
2022-12-06T06:33:13.898Z,18.43
2022-12-06T06:35:41.836Z,18.42
2022-12-06T06:38:09.857Z,18.44
2022-12-06T06:40:39.119Z,18.46
2022-12-06T06:43:20.058Z,18.46
2022-12-06T06:45:52.385Z,18.44
2022-12-06T06:48:20.326Z,18.43
2022-12-06T06:50:52.643Z,18.42
2022-12-06T06:53:25.039Z,18.42
2022-12-06T06:55:54.996Z,18.42
2022-12-06T06:58:22.912Z,18.42
2022-12-06T07:00:53.735Z,18.43
2022-12-06T07:03:21.820Z,18.44
2022-12-06T07:05:52.771Z,18.47
2022-12-06T07:08:23.679Z,18.49
2022-12-06T07:10:51.627Z,18.52
2022-12-06T07:13:20.976Z,18.55
2022-12-06T07:15:48.953Z,18.60
2022-12-06T07:18:17.853Z,18.64
2022-12-06T07:20:45.771Z,18.68
2022-12-06T07:23:13.710Z,18.70
2022-12-06T07:25:41.666Z,18.73
2022-12-06T07:28:09.547Z,18.77
2022-12-06T07:30:38.910Z,18.78
2022-12-06T07:33:06.966Z,18.81
2022-12-06T07:36:10.290Z,18.79
2022-12-06T07:38:22.756Z,18.76
2022-12-06T07:41:05.149Z,18.73
2022-12-06T07:43:50.891Z,18.71
2022-12-06T07:46:20.256Z,18.68
2022-12-06T07:48:48.299Z,18.66
2022-12-06T07:51:16.176Z,18.65
2022-12-06T07:53:44.073Z,18.63
2022-12-06T07:56:12.197Z,18.63
2022-12-06T07:58:40.041Z,18.61
2022-12-06T08:01:08.026Z,18.58
2022-12-06T08:03:37.364Z,18.58
2022-12-06T08:06:05.552Z,18.57
2022-12-06T08:08:33.482Z,18.57
2022-12-06T08:11:01.442Z,18.55
2022-12-06T08:13:29.390Z,18.53
2022-12-06T08:15:57.457Z,18.53
2022-12-06T08:18:25.637Z,18.52
2022-12-06T08:20:55.266Z,18.52
2022-12-06T08:23:23.190Z,18.52
2022-12-06T08:25:57.995Z,18.51
2022-12-06T08:28:26.367Z,18.51
2022-12-06T08:30:57.096Z,18.50
2022-12-06T08:33:29.347Z,18.48
2022-12-06T08:36:01.960Z,18.47
2022-12-06T08:38:30.031Z,18.46
2022-12-06T08:40:57.907Z,18.46
2022-12-06T08:43:25.896Z,18.47
2022-12-06T08:45:54.062Z,18.46
2022-12-06T08:48:22.379Z,18.48
2022-12-06T08:50:50.221Z,18.47
2022-12-06T08:53:19.666Z,18.47
2022-12-06T08:56:02.062Z,18.47
2022-12-06T08:58:30.469Z,18.46
2022-12-06T09:00:58.384Z,18.44
2022-12-06T09:03:26.780Z,18.43
2022-12-06T09:05:54.689Z,18.42
2022-12-06T09:08:24.036Z,18.44
2022-12-06T09:10:51.996Z,18.44
2022-12-06T09:13:19.873Z,18.44
2022-12-06T09:15:47.774Z,18.43
2022-12-06T09:18:15.718Z,18.44
2022-12-06T09:20:43.672Z,18.45
2022-12-06T09:23:11.572Z,18.45
2022-12-06T09:25:41.879Z,18.43
2022-12-06T09:28:09.908Z,18.42
2022-12-06T09:30:37.778Z,18.42
2022-12-06T09:33:05.703Z,18.43
2022-12-06T09:35:33.748Z,18.43
2022-12-06T09:38:03.589Z,18.44
2022-12-06T09:40:36.221Z,18.43
2022-12-06T09:43:14.520Z,18.43
2022-12-06T09:45:50.947Z,18.43
2022-12-06T09:48:40.868Z,18.42
2022-12-06T09:51:18.206Z,18.42
2022-12-06T09:53:57.151Z,18.43
2022-12-06T09:56:26.553Z,18.43
2022-12-06T09:59:03.241Z,18.44
2022-12-06T10:01:36.671Z,18.44
2022-12-06T10:04:17.565Z,18.44
2022-12-06T10:06:49.491Z,18.46
2022-12-06T10:09:24.068Z,18.45
2022-12-06T10:11:59.359Z,18.45
2022-12-06T10:14:36.906Z,18.44
2022-12-06T10:17:09.465Z,18.44
2022-12-06T10:19:44.774Z,18.42
2022-12-06T10:22:14.629Z,18.41
2022-12-06T10:24:48.565Z,18.42
2022-12-06T10:27:20.567Z,18.42
2022-12-06T10:29:55.696Z,18.42
2022-12-06T10:32:30.962Z,18.43
2022-12-06T10:34:59.418Z,18.42
2022-12-06T10:37:35.531Z,18.40
2022-12-06T10:40:06.756Z,18.39
2022-12-06T10:42:36.847Z,18.40
2022-12-06T10:45:30.254Z,18.41
2022-12-06T10:47:57.340Z,18.40
2022-12-06T10:50:26.757Z,18.41
2022-12-06T10:53:00.249Z,18.43
2022-12-06T10:55:32.444Z,18.45
2022-12-06T10:58:06.547Z,18.45
2022-12-06T11:00:39.350Z,18.47
2022-12-06T11:03:11.587Z,18.45
2022-12-06T11:05:41.949Z,18.47
2022-12-06T11:08:12.255Z,18.49
2022-12-06T11:10:40.540Z,18.50
2022-12-06T11:13:16.403Z,18.52
2022-12-06T11:15:48.248Z,18.55
2022-12-06T11:18:17.141Z,18.55
2022-12-06T11:20:47.535Z,18.55
2022-12-06T11:23:20.648Z,18.55
2022-12-06T11:26:08.498Z,18.55
2022-12-06T11:28:37.872Z,18.55
2022-12-06T11:31:19.908Z,18.55
2022-12-06T11:33:47.803Z,18.57
2022-12-06T11:36:15.700Z,18.58
2022-12-06T11:38:43.781Z,18.58
2022-12-06T11:41:13.176Z,18.57
2022-12-06T11:43:41.072Z,18.58
2022-12-06T11:46:12.022Z,18.60
2022-12-06T11:48:40.077Z,18.60
2022-12-06T11:51:12.227Z,18.59
2022-12-06T11:53:41.899Z,18.58
2022-12-06T11:56:19.677Z,18.56
2022-12-06T11:59:00.444Z,18.56
2022-12-06T12:01:40.194Z,18.54
2022-12-06T12:04:41.207Z,18.54
2022-12-06T12:07:14.471Z,18.54
2022-12-06T12:09:53.411Z,18.53
2022-12-06T12:12:22.399Z,18.56
2022-12-06T12:14:54.515Z,18.58
2022-12-06T12:17:24.844Z,18.62
2022-12-06T12:19:53.431Z,18.60
2022-12-06T12:22:26.059Z,18.62
2022-12-06T12:27:48.015Z,18.65
2022-12-06T12:30:31.050Z,18.63
2022-12-06T12:33:27.062Z,18.64
2022-12-06T12:36:03.780Z,18.65
2022-12-06T12:38:36.185Z,18.65
2022-12-06T12:41:05.239Z,18.68
2022-12-06T12:43:33.667Z,18.69
2022-12-06T12:46:21.085Z,18.68
2022-12-06T12:48:51.079Z,18.70
2022-12-06T12:51:30.379Z,18.72
2022-12-06T12:53:59.458Z,18.75
2022-12-06T12:56:27.439Z,18.77
2022-12-06T12:58:56.087Z,18.77
2022-12-06T13:01:37.469Z,18.78
2022-12-06T13:04:15.533Z,18.80
2022-12-06T13:06:47.855Z,18.82
2022-12-06T13:09:18.712Z,18.83
2022-12-06T13:11:49.003Z,18.84
2022-12-06T13:14:18.930Z,18.86
2022-12-06T13:16:46.948Z,18.88
2022-12-06T13:19:18.683Z,18.87
2022-12-06T13:21:46.572Z,18.88
2022-12-06T13:24:18.632Z,18.92
2022-12-06T13:26:48.606Z,18.97
2022-12-06T13:29:22.985Z,18.98
2022-12-06T13:31:51.128Z,18.99
2022-12-06T13:34:22.981Z,19.00
2022-12-06T13:36:52.287Z,19.04
2022-12-06T13:39:40.425Z,19.09
2022-12-06T13:42:22.973Z,19.13
2022-12-06T13:44:56.110Z,19.15
2022-12-06T13:47:40.576Z,19.18
2022-12-06T13:50:41.861Z,19.20
2022-12-06T13:53:11.202Z,19.26
2022-12-06T13:56:00.874Z,19.29
2022-12-06T13:58:42.821Z,19.34
2022-12-06T14:01:40.698Z,19.37
2022-12-06T14:04:42.618Z,19.42
2022-12-06T14:09:41.933Z,19.46
2022-12-06T14:12:19.329Z,19.47
2022-12-06T14:14:56.398Z,19.47
2022-12-06T14:17:59.492Z,19.49
2022-12-06T14:20:19.921Z,19.48
2022-12-06T14:22:48.560Z,19.46
2022-12-06T14:25:21.420Z,19.43
2022-12-06T14:27:50.236Z,19.41
2022-12-06T14:30:25.258Z,19.37
2022-12-06T14:32:54.714Z,19.34
2022-12-06T14:35:27.075Z,19.32
2022-12-06T14:37:55.669Z,19.31
2022-12-06T14:40:50.880Z,19.31
2022-12-06T14:43:16.007Z,19.28
2022-12-06T14:45:43.930Z,19.26
2022-12-06T14:48:11.897Z,19.21
2022-12-06T14:50:41.745Z,19.18
2022-12-06T14:53:12.711Z,19.16
2022-12-06T14:55:53.621Z,19.12
2022-12-06T14:58:22.621Z,19.10
2022-12-06T15:00:53.636Z,19.07
2022-12-06T15:03:28.613Z,19.04
2022-12-06T15:06:17.147Z,19.00
2022-12-06T15:08:48.133Z,18.98
2022-12-06T15:11:51.940Z,18.96
2022-12-06T15:14:20.639Z,18.93
2022-12-06T15:16:57.683Z,18.90
2022-12-06T15:19:25.578Z,18.89
2022-12-06T15:21:53.651Z,18.88
2022-12-06T15:24:22.201Z,18.86
2022-12-06T15:26:51.542Z,18.84
2022-12-06T15:29:19.392Z,18.81
2022-12-06T15:31:50.514Z,18.79
2022-12-06T15:34:23.950Z,18.76
2022-12-06T15:37:09.064Z,18.74
2022-12-06T15:39:39.832Z,18.72
2022-12-06T15:42:13.891Z,18.70
2022-12-06T15:44:47.248Z,18.68
2022-12-06T15:47:16.940Z,18.67
2022-12-06T15:49:45.468Z,18.65
2022-12-06T15:52:15.586Z,18.64
2022-12-06T15:54:43.513Z,18.64
2022-12-06T15:57:12.824Z,18.64
2022-12-06T15:59:40.689Z,18.62
2022-12-06T16:02:14.128Z,18.61
2022-12-06T16:04:42.117Z,18.60
2022-12-06T16:07:10.694Z,18.57
2022-12-06T16:09:38.755Z,18.56
2022-12-06T16:12:07.141Z,18.56
2022-12-06T16:14:36.452Z,18.55
2022-12-06T16:17:04.264Z,18.53
2022-12-06T16:19:46.007Z,18.53
2022-12-06T16:22:14.097Z,18.53
2022-12-06T16:24:41.222Z,18.51
2022-12-06T16:27:09.199Z,18.50
2022-12-06T16:29:38.440Z,18.49
2022-12-06T16:32:07.614Z,18.49
2022-12-06T16:34:35.564Z,18.48
2022-12-06T16:37:04.146Z,18.48
2022-12-06T16:39:33.536Z,18.47
2022-12-06T16:42:01.522Z,18.47
2022-12-06T16:44:29.406Z,18.45
2022-12-06T16:46:58.943Z,18.46
2022-12-06T16:52:15.889Z,18.42
2022-12-06T16:54:43.872Z,18.42
2022-12-06T16:57:12.586Z,18.41
2022-12-06T16:59:40.597Z,18.39
2022-12-06T17:02:20.358Z,18.41
2022-12-06T17:04:49.130Z,18.44
2022-12-06T17:07:17.227Z,18.46
2022-12-06T17:09:45.127Z,18.46
2022-12-06T17:12:15.119Z,18.46
2022-12-06T17:14:43.014Z,18.44
2022-12-06T17:17:14.032Z,18.44
2022-12-06T17:19:42.265Z,18.45
2022-12-06T17:22:10.580Z,18.45
2022-12-06T17:24:38.540Z,18.47
2022-12-06T17:27:06.991Z,18.46
2022-12-06T17:29:34.945Z,18.46
2022-12-06T17:32:02.869Z,18.46
2022-12-06T17:34:32.145Z,18.48
2022-12-06T17:37:00.119Z,18.52
2022-12-06T17:39:28.025Z,18.53
2022-12-06T17:42:13.543Z,18.54
2022-12-06T17:44:41.442Z,18.54
2022-12-06T17:47:09.323Z,18.53
2022-12-06T17:49:38.631Z,18.55
2022-12-06T17:52:06.809Z,18.56
2022-12-06T17:54:34.743Z,18.57
2022-12-06T17:57:02.657Z,18.57
2022-12-06T17:59:32.037Z,18.55
2022-12-06T18:02:18.994Z,18.53
2022-12-06T18:04:48.908Z,18.54
2022-12-06T18:07:16.927Z,18.55
2022-12-06T18:09:44.796Z,18.54
2022-12-06T18:12:13.682Z,18.51
2022-12-06T18:14:41.564Z,18.51
2022-12-06T18:17:09.540Z,18.51
2022-12-06T18:19:37.600Z,18.51
2022-12-06T18:22:06.895Z,18.50
2022-12-06T18:24:36.049Z,18.50
2022-12-06T18:27:04.732Z,18.51
2022-12-06T18:29:32.756Z,18.52
2022-12-06T18:32:00.746Z,18.52
2022-12-06T18:34:28.774Z,18.52
2022-12-06T18:36:56.644Z,18.52
2022-12-06T18:39:26.007Z,18.52
2022-12-06T18:41:54.175Z,18.53
2022-12-06T18:44:22.257Z,18.53
2022-12-06T18:46:50.167Z,18.54
2022-12-06T18:49:18.413Z,18.55
2022-12-06T18:51:46.242Z,18.54
2022-12-06T18:54:14.775Z,18.57
2022-12-06T18:56:44.101Z,18.57
2022-12-06T18:59:12.695Z,18.58
2022-12-06T19:01:40.883Z,18.59
2022-12-06T19:04:09.730Z,18.58
2022-12-06T19:06:38.393Z,18.58
2022-12-06T19:09:08.139Z,18.58
2022-12-06T19:11:37.439Z,18.57
2022-12-06T19:14:06.697Z,18.55
2022-12-06T19:16:35.723Z,18.55
2022-12-06T19:19:04.840Z,18.54
2022-12-06T19:21:33.235Z,18.53
2022-12-06T19:24:01.136Z,18.52
2022-12-06T19:26:29.084Z,18.52
2022-12-06T19:28:57.024Z,18.52
2022-12-06T19:31:26.253Z,18.51
2022-12-06T19:33:54.292Z,18.50
2022-12-06T19:36:23.323Z,18.49
2022-12-06T19:38:56.204Z,18.49
2022-12-06T19:41:24.232Z,18.48
2022-12-06T19:44:09.449Z,18.48
2022-12-06T19:46:38.758Z,18.47
2022-12-06T19:49:07.239Z,18.45
2022-12-06T19:51:35.675Z,18.45
2022-12-06T19:54:03.665Z,18.46
2022-12-06T19:56:31.565Z,18.45
2022-12-06T19:58:59.570Z,18.46
2022-12-06T20:01:30.064Z,18.45
2022-12-06T20:03:59.642Z,18.45
2022-12-06T20:06:27.946Z,18.45
2022-12-06T20:08:56.673Z,18.44
2022-12-06T20:11:42.387Z,18.42
2022-12-06T20:14:11.238Z,18.42
2022-12-06T20:16:39.231Z,18.41
2022-12-06T20:19:08.620Z,18.42
2022-12-06T20:21:36.613Z,18.43
2022-12-06T20:24:04.803Z,18.44
2022-12-06T20:26:32.971Z,18.45
2022-12-06T20:29:00.973Z,18.44
2022-12-06T20:31:29.783Z,18.45
2022-12-06T20:33:57.906Z,18.45
2022-12-06T20:36:27.817Z,18.44
2022-12-06T20:38:55.974Z,18.44
2022-12-06T20:41:25.067Z,18.43
2022-12-06T20:43:53.050Z,18.43
2022-12-06T20:46:22.918Z,18.42
2022-12-06T20:48:50.965Z,18.44
2022-12-06T20:51:19.823Z,18.45
2022-12-06T20:53:49.081Z,18.46
2022-12-06T20:56:17.884Z,18.45
2022-12-06T20:58:45.933Z,18.45
2022-12-06T21:01:14.003Z,18.44
2022-12-06T21:03:41.971Z,18.44
2022-12-06T21:06:10.855Z,18.42
2022-12-06T21:08:38.724Z,18.42
2022-12-06T21:11:24.134Z,18.43
2022-12-06T21:13:53.357Z,18.44
2022-12-06T21:16:26.276Z,18.43
2022-12-06T21:18:57.828Z,18.43
2022-12-06T21:21:26.847Z,18.43
2022-12-06T21:23:54.777Z,18.44
2022-12-06T21:26:24.071Z,18.44
2022-12-06T21:28:52.988Z,18.44
2022-12-06T21:31:20.948Z,18.43
2022-12-06T21:33:48.955Z,18.42
2022-12-06T21:36:16.806Z,18.42
2022-12-06T21:38:44.894Z,18.42
2022-12-06T21:41:13.411Z,18.42
2022-12-06T21:43:42.621Z,18.42
2022-12-06T21:46:13.157Z,18.42
2022-12-06T21:48:41.134Z,18.42
2022-12-06T21:51:11.062Z,18.43
2022-12-06T21:53:38.973Z,18.42
2022-12-06T21:56:08.060Z,18.42
2022-12-06T21:58:36.302Z,18.42
2022-12-06T22:01:09.576Z,18.43
2022-12-06T22:03:37.449Z,18.44
2022-12-06T22:06:06.203Z,18.44
2022-12-06T22:08:34.148Z,18.45
2022-12-06T22:11:02.001Z,18.44
2022-12-06T22:13:29.923Z,18.47
2022-12-06T22:16:01.501Z,18.52
2022-12-06T22:18:30.821Z,18.53
2022-12-06T22:20:59.573Z,18.57
2022-12-06T22:23:27.498Z,18.58
2022-12-06T22:25:55.700Z,18.59
2022-12-06T22:28:23.642Z,18.62
2022-12-06T22:30:51.616Z,18.61
2022-12-06T22:33:20.230Z,18.62
2022-12-06T22:35:49.473Z,18.62
2022-12-06T22:38:17.410Z,18.61
2022-12-06T22:40:45.279Z,18.62
2022-12-06T22:43:13.141Z,18.62
2022-12-06T22:45:41.030Z,18.63
2022-12-06T22:48:08.916Z,18.64
2022-12-06T22:50:36.842Z,18.64
2022-12-06T22:53:06.095Z,18.63
2022-12-06T22:55:34.006Z,18.60
2022-12-06T22:58:01.877Z,18.61
2022-12-06T23:00:29.790Z,18.62
2022-12-06T23:02:57.720Z,18.62
2022-12-06T23:05:25.695Z,18.59
2022-12-06T23:07:53.608Z,18.58
2022-12-06T23:10:22.913Z,18.57
2022-12-06T23:12:50.788Z,18.56
2022-12-06T23:15:18.869Z,18.56
2022-12-06T23:17:46.733Z,18.57
2022-12-06T23:20:14.700Z,18.56
2022-12-06T23:22:42.631Z,18.55
2022-12-06T23:25:10.608Z,18.55
2022-12-06T23:27:39.859Z,18.54
2022-12-06T23:30:09.545Z,18.53
2022-12-06T23:32:37.490Z,18.51
2022-12-06T23:35:05.812Z,18.52
2022-12-06T23:37:33.709Z,18.51
2022-12-06T23:40:01.737Z,18.50
2022-12-06T23:42:29.789Z,18.48
2022-12-06T23:44:59.072Z,18.47
2022-12-06T23:47:26.940Z,18.47
2022-12-06T23:49:54.839Z,18.46
2022-12-06T23:52:22.701Z,18.45
2022-12-06T23:54:50.617Z,18.45
2022-12-06T23:57:18.553Z,18.45
2022-12-06T23:59:46.438Z,18.44
